Chicago Bmc, Illinois
Current Conditions -  °F | °C
As of 2:19 PM on Monday 24 Nov 2014 (Local Time) from KORD Reporting Station
Light Snow Light Snow  
Wind Chill: 17°   Ceiling: 1900
Heat Index: 30°   Visibility: 5mi
Dew Point: 27°   Wind: 23mph
Humidity: 88%   Direction: 240°WSW
Pressure: 29.44"   Gusts: 35mph
Location:  42.0275°N, 87.808°W
Report Text: KORD 242019Z 24020G30KT 5SM -SN BR SCT013 OVC019 M01/M03 A2944 RMK AO2 PK WND 26038/1954 PRESRR P0000 T10111028
Loading
Personal Weather Stations






























Interactive Weather Map New forecast layout! Learn more

10-Day Weather Forecast

Advertisements
Track Severe Weather on mobile